createdAt,value
2022-12-25T00:01:26.697Z,101902.56
2022-12-25T00:03:54.124Z,101899.34
2022-12-25T00:06:21.805Z,101893.22
2022-12-25T00:08:50.327Z,101888.97
2022-12-25T00:11:19.638Z,101896.09
2022-12-25T00:13:47.899Z,101891.19
2022-12-25T00:16:20.715Z,101893.56
2022-12-25T00:18:48.720Z,101899.16
2022-12-25T00:21:16.214Z,101891.44
2022-12-25T00:23:43.781Z,101890.94
2022-12-25T00:26:15.409Z,101882.41
2022-12-25T00:28:43.122Z,101881.56
2022-12-25T00:31:16.086Z,101883.38
2022-12-25T00:33:46.231Z,101878.84
2022-12-25T00:36:16.412Z,101880.22
2022-12-25T00:38:44.340Z,101885.84
2022-12-25T00:41:49.279Z,101882.47
2022-12-25T00:44:30.578Z,101881.41
2022-12-25T00:46:58.505Z,101887.41
2022-12-25T00:49:25.886Z,101886.75
2022-12-25T00:51:54.437Z,101891.34
2022-12-25T00:54:21.895Z,101890.53
2022-12-25T00:56:49.398Z,101896.78
2022-12-25T00:59:17.249Z,101895.72
2022-12-25T01:01:44.805Z,101892.63
2022-12-25T01:04:12.651Z,101897.56
2022-12-25T01:06:40.285Z,101895.72
2022-12-25T01:09:27.630Z,101899.84
2022-12-25T01:11:55.365Z,101899.69
2022-12-25T01:14:22.733Z,101905.94
2022-12-25T01:16:50.219Z,101907.47
2022-12-25T01:19:17.537Z,101911.03
2022-12-25T01:21:44.874Z,101909.97
2022-12-25T01:24:12.740Z,101915.41
2022-12-25T01:26:40.215Z,101912.75
2022-12-25T01:29:07.511Z,101923.31
2022-12-25T01:31:35.320Z,101921.56
2022-12-25T01:34:02.673Z,101923.09
2022-12-25T01:36:30.435Z,101934.34
2022-12-25T01:38:57.831Z,101934.31
2022-12-25T01:41:25.457Z,101928.13
2022-12-25T01:43:59.683Z,101936.41
2022-12-25T01:46:27.752Z,101943.72
2022-12-25T01:48:58.865Z,101942.03
2022-12-25T01:51:58.732Z,101946.47
2022-12-25T01:54:31.514Z,101945.78
2022-12-25T01:57:02.870Z,101944.13
2022-12-25T01:59:30.444Z,101949.41
2022-12-25T02:02:00.144Z,101946.03
2022-12-25T02:04:40.045Z,101948.25
2022-12-25T02:07:13.344Z,101944.38
2022-12-25T02:09:41.421Z,101938.88
2022-12-25T02:12:14.997Z,101943.13
2022-12-25T02:14:42.531Z,101945.38
2022-12-25T02:17:27.959Z,101941.25
2022-12-25T02:20:32.666Z,101943.66
2022-12-25T02:23:34.737Z,101941.66
2022-12-25T02:26:18.325Z,101939.94
2022-12-25T02:29:03.590Z,101949.41
2022-12-25T02:31:54.192Z,101943.56
2022-12-25T02:34:30.748Z,101946.63
2022-12-25T02:37:13.227Z,101949.41
2022-12-25T02:39:58.673Z,101946.03
2022-12-25T02:43:07.917Z,101949.56
2022-12-25T02:46:09.680Z,101949.75
2022-12-25T02:49:01.022Z,101945.28
2022-12-25T02:51:52.054Z,101941.34
2022-12-25T02:54:44.805Z,101947.78
2022-12-25T02:57:35.077Z,101952.47
2022-12-25T03:00:22.528Z,101949.41
2022-12-25T03:03:10.757Z,101940.19
2022-12-25T03:06:01.112Z,101944.31
2022-12-25T03:08:40.177Z,101944.97
2022-12-25T03:11:29.518Z,101946.34
2022-12-25T03:14:21.629Z,101940.59
2022-12-25T03:16:50.961Z,101943.19
2022-12-25T03:19:55.094Z,101936.56
2022-12-25T03:22:48.310Z,101937.72
2022-12-25T03:25:35.733Z,101945.53
2022-12-25T03:28:04.417Z,101937.88
2022-12-25T03:31:11.231Z,101945.69
2022-12-25T03:34:10.220Z,101944.13
2022-12-25T03:37:33.328Z,101944.13
2022-12-25T03:40:31.633Z,101941.38
2022-12-25T03:43:26.429Z,101953.09
2022-12-25T03:46:17.304Z,101940.50
2022-12-25T03:49:08.787Z,101946.25
2022-12-25T03:51:58.089Z,101949.13
2022-12-25T03:54:48.007Z,101939.00
2022-12-25T03:57:34.003Z,101939.84
2022-12-25T04:00:20.269Z,101944.44
2022-12-25T04:03:06.524Z,101940.38
2022-12-25T04:05:53.351Z,101937.75
2022-12-25T04:08:39.088Z,101950.00
2022-12-25T04:11:24.979Z,101948.91
2022-12-25T04:14:10.922Z,101944.88
2022-12-25T04:16:56.854Z,101947.69
2022-12-25T04:19:42.732Z,101946.69
2022-12-25T04:22:28.738Z,101954.47
2022-12-25T04:25:15.026Z,101955.84
2022-12-25T04:28:01.304Z,101960.31
2022-12-25T04:30:47.748Z,101955.13
2022-12-25T04:33:33.652Z,101955.59
2022-12-25T04:36:10.148Z,101957.03
2022-12-25T04:38:39.289Z,101958.63
2022-12-25T04:41:09.146Z,101952.47
2022-12-25T04:43:37.249Z,101955.59
2022-12-25T04:46:05.106Z,101958.69
2022-12-25T04:48:34.803Z,101965.19
2022-12-25T04:51:21.224Z,101961.59
2022-12-25T04:53:50.412Z,101969.69
2022-12-25T04:56:18.218Z,101968.56
2022-12-25T04:58:46.049Z,101963.91
2022-12-25T05:01:14.716Z,101965.84
2022-12-25T05:03:42.836Z,101963.34
2022-12-25T05:06:10.482Z,101969.03
2022-12-25T05:08:39.857Z,101968.16
2022-12-25T05:11:09.782Z,101971.47
2022-12-25T05:13:38.312Z,101962.19
2022-12-25T05:16:18.484Z,101963.25
2022-12-25T05:18:49.583Z,101976.13
2022-12-25T05:21:17.740Z,101972.19
2022-12-25T05:23:51.346Z,101974.59
2022-12-25T05:26:24.329Z,101980.41
2022-12-25T05:28:52.138Z,101972.97
2022-12-25T05:31:20.021Z,101981.34
2022-12-25T05:33:51.658Z,101971.97
2022-12-25T05:36:19.393Z,101978.88
2022-12-25T05:38:46.755Z,101977.47
2022-12-25T05:41:14.169Z,101976.31
2022-12-25T05:43:41.479Z,101969.88
2022-12-25T05:46:10.323Z,101970.44
2022-12-25T05:48:39.056Z,101971.25
2022-12-25T05:51:12.045Z,101965.66
2022-12-25T05:53:40.041Z,101964.06
2022-12-25T05:56:08.540Z,101968.13
2022-12-25T05:58:40.413Z,101987.00
2022-12-25T06:01:14.946Z,101990.41
2022-12-25T06:03:42.455Z,101977.88
2022-12-25T06:06:10.382Z,101980.13
2022-12-25T06:08:38.270Z,101983.75
2022-12-25T06:11:07.891Z,101979.06
2022-12-25T06:13:35.742Z,101978.44
2022-12-25T06:16:08.323Z,101987.53
2022-12-25T06:18:41.309Z,101992.22
2022-12-25T06:21:10.897Z,101993.13
2022-12-25T06:23:39.073Z,101986.38
2022-12-25T06:26:09.114Z,101989.53
2022-12-25T06:28:36.991Z,101991.06
2022-12-25T06:31:14.713Z,101994.97
2022-12-25T06:33:42.835Z,101997.41
2022-12-25T06:36:20.070Z,101990.28
2022-12-25T06:38:47.857Z,101988.91
2022-12-25T06:41:23.721Z,101998.88
2022-12-25T06:43:53.155Z,101992.59
2022-12-25T06:46:22.299Z,101998.03
2022-12-25T06:48:50.243Z,102003.97
2022-12-25T06:51:20.139Z,102002.84
2022-12-25T06:53:48.985Z,102005.22
2022-12-25T06:56:19.972Z,102011.00
2022-12-25T06:58:53.098Z,102012.19
2022-12-25T07:01:24.579Z,102008.06
2022-12-25T07:03:55.172Z,102016.16
2022-12-25T07:06:22.998Z,102020.25
2022-12-25T07:08:50.505Z,102027.22
2022-12-25T07:11:18.028Z,102020.63
2022-12-25T07:13:45.792Z,102033.72
2022-12-25T07:16:13.976Z,102023.44
2022-12-25T07:18:41.923Z,102027.22
2022-12-25T07:21:11.954Z,102026.97
2022-12-25T07:23:40.144Z,102027.97
2022-12-25T07:26:10.772Z,102028.50
2022-12-25T07:28:38.860Z,102025.50
2022-12-25T07:31:17.077Z,102029.22
2022-12-25T07:33:45.617Z,102032.66
2022-12-25T07:36:14.399Z,102035.69
2022-12-25T07:38:42.518Z,102029.78
2022-12-25T07:41:12.809Z,102041.53
2022-12-25T07:43:41.130Z,102042.72
2022-12-25T07:46:09.870Z,102039.78
2022-12-25T07:48:37.478Z,102047.41
2022-12-25T07:51:07.753Z,102051.44
2022-12-25T07:53:36.174Z,102045.44
2022-12-25T07:56:07.127Z,102049.03
2022-12-25T07:58:35.146Z,102052.78
2022-12-25T08:01:05.489Z,102064.06
2022-12-25T08:03:34.949Z,102064.50
2022-12-25T08:06:07.566Z,102061.78
2022-12-25T08:08:37.482Z,102069.00
2022-12-25T08:11:08.265Z,102083.31
2022-12-25T08:13:35.919Z,102081.91
2022-12-25T08:16:07.921Z,102086.09
2022-12-25T08:18:37.005Z,102094.22
2022-12-25T08:21:07.095Z,102105.13
2022-12-25T08:23:36.382Z,102102.84
2022-12-25T08:26:06.051Z,102107.06
2022-12-25T08:28:35.560Z,102101.00
2022-12-25T08:31:14.912Z,102121.41
2022-12-25T08:33:43.083Z,102115.56
2022-12-25T08:36:12.095Z,102117.69
2022-12-25T08:38:39.827Z,102125.31
2022-12-25T08:41:09.727Z,102131.63
2022-12-25T08:43:37.467Z,102128.94
2022-12-25T08:46:05.448Z,102129.38
2022-12-25T08:48:33.457Z,102128.72
2022-12-25T08:51:01.867Z,102131.00
2022-12-25T08:53:29.723Z,102129.69
2022-12-25T08:56:03.749Z,102133.88
2022-12-25T08:58:31.043Z,102142.13
2022-12-25T09:00:58.530Z,102141.31
2022-12-25T09:03:26.359Z,102147.44
2022-12-25T09:05:54.656Z,102146.34
2022-12-25T09:08:22.293Z,102146.38
2022-12-25T09:10:49.950Z,102141.59
2022-12-25T09:13:17.293Z,102146.94
2022-12-25T09:15:45.036Z,102144.19
2022-12-25T09:18:12.479Z,102141.56
2022-12-25T09:20:40.170Z,102141.22
2022-12-25T09:23:13.568Z,102140.34
2022-12-25T09:25:42.156Z,102149.75
2022-12-25T09:28:09.854Z,102153.34
2022-12-25T09:30:37.628Z,102155.75
2022-12-25T09:33:04.977Z,102161.91
2022-12-25T09:35:32.270Z,102155.59
2022-12-25T09:37:59.538Z,102165.47
2022-12-25T09:40:31.170Z,102167.94
2022-12-25T09:42:59.488Z,102160.31
2022-12-25T09:45:37.771Z,102163.00
2022-12-25T09:48:05.816Z,102146.50
2022-12-25T09:50:52.159Z,102151.13
2022-12-25T09:53:24.112Z,102152.63
2022-12-25T09:56:07.107Z,102151.88
2022-12-25T09:58:34.844Z,102166.00
2022-12-25T10:01:15.886Z,102164.56
2022-12-25T10:03:49.907Z,102160.88
2022-12-25T10:06:24.942Z,102158.88
2022-12-25T10:09:23.144Z,102161.78
2022-12-25T10:12:09.386Z,102158.25
2022-12-25T10:15:03.310Z,102162.53
2022-12-25T10:17:45.864Z,102157.16
2022-12-25T10:20:27.962Z,102150.91
2022-12-25T10:22:58.441Z,102162.84
2022-12-25T10:25:26.056Z,102170.34
2022-12-25T10:28:01.709Z,102166.69
2022-12-25T10:30:30.818Z,102160.91
2022-12-25T10:32:58.958Z,102155.25
2022-12-25T10:35:29.819Z,102152.84
2022-12-25T10:38:02.621Z,102150.13
2022-12-25T10:40:44.724Z,102150.81
2022-12-25T10:43:17.160Z,102147.09
2022-12-25T10:45:47.297Z,102151.78
2022-12-25T10:48:43.230Z,102154.19
2022-12-25T10:51:11.667Z,102151.53
2022-12-25T10:53:42.344Z,102153.78
2022-12-25T10:56:19.879Z,102142.56
2022-12-25T10:58:47.253Z,102140.84
2022-12-25T11:01:15.244Z,102143.78
2022-12-25T11:03:51.149Z,102138.03
2022-12-25T11:06:24.577Z,102141.50
2022-12-25T11:08:55.669Z,102133.38
2022-12-25T11:11:24.189Z,102128.19
2022-12-25T11:13:55.292Z,102127.81
2022-12-25T11:16:29.838Z,102126.28
2022-12-25T11:18:58.761Z,102127.63
2022-12-25T11:21:35.172Z,102127.41
2022-12-25T11:24:18.021Z,102123.28
2022-12-25T11:26:51.627Z,102119.44
2022-12-25T11:29:43.588Z,102122.03
2022-12-25T11:32:19.232Z,102116.28
2022-12-25T11:34:48.975Z,102121.84
2022-12-25T11:37:32.685Z,102126.41
2022-12-25T11:40:00.592Z,102136.56
2022-12-25T11:43:08.007Z,102121.88
2022-12-25T11:45:39.246Z,102118.91
2022-12-25T11:48:18.216Z,102120.47
2022-12-25T11:50:51.544Z,102122.91
2022-12-25T11:53:37.366Z,102111.63
2022-12-25T11:56:10.811Z,102112.00
2022-12-25T11:58:52.011Z,102110.16
2022-12-25T12:01:44.341Z,102098.63
2022-12-25T12:04:29.088Z,102096.16
2022-12-25T12:07:09.335Z,102098.38
2022-12-25T12:10:19.154Z,102095.81
2022-12-25T12:12:49.000Z,102087.16
2022-12-25T12:15:35.943Z,102090.72
2022-12-25T12:18:27.852Z,102097.97
2022-12-25T12:21:01.270Z,102088.00
2022-12-25T12:23:33.661Z,102079.00
2022-12-25T12:26:01.719Z,102077.03
2022-12-25T12:28:44.685Z,102069.72
2022-12-25T12:31:15.047Z,102086.28
2022-12-25T12:33:56.160Z,102091.44
2022-12-25T12:36:35.593Z,102087.09
2022-12-25T12:39:05.717Z,102088.38
2022-12-25T12:41:48.712Z,102088.34
2022-12-25T12:44:17.911Z,102094.59
2022-12-25T12:46:56.935Z,102086.72
2022-12-25T12:49:32.469Z,102077.09
2022-12-25T12:52:06.008Z,102088.28
2022-12-25T12:54:33.651Z,102084.59
2022-12-25T12:57:02.998Z,102079.50
2022-12-25T12:59:43.427Z,102080.19
2022-12-25T13:02:39.519Z,102077.50
2022-12-25T13:05:34.650Z,102072.94
2022-12-25T13:08:28.490Z,102067.09
2022-12-25T13:11:19.152Z,102078.56
2022-12-25T13:13:48.211Z,102075.44
2022-12-25T13:16:24.530Z,102078.34
2022-12-25T13:18:54.132Z,102075.63
2022-12-25T13:21:27.449Z,102078.13
2022-12-25T13:24:00.737Z,102081.94
2022-12-25T13:26:29.819Z,102079.59
2022-12-25T13:28:57.561Z,102090.38
2022-12-25T13:31:28.103Z,102086.88
2022-12-25T13:34:31.312Z,102088.81
2022-12-25T13:37:05.963Z,102084.22
2022-12-25T13:39:35.836Z,102088.53
2022-12-25T13:42:09.532Z,102088.28
2022-12-25T13:44:42.740Z,102089.91
2022-12-25T13:47:25.758Z,102100.94
2022-12-25T13:49:55.910Z,102096.19
2022-12-25T13:52:32.437Z,102093.34
2022-12-25T13:55:01.898Z,102089.75
2022-12-25T13:57:33.805Z,102093.31
2022-12-25T14:00:01.829Z,102098.38
2022-12-25T14:02:37.291Z,102099.69
2022-12-25T14:05:27.964Z,102098.69
2022-12-25T14:07:58.336Z,102105.41
2022-12-25T14:10:29.517Z,102100.63
2022-12-25T14:13:00.982Z,102101.41
2022-12-25T14:15:31.345Z,102103.31
2022-12-25T14:17:59.854Z,102105.47
2022-12-25T14:20:37.031Z,102110.91
2022-12-25T14:23:05.076Z,102111.22
2022-12-25T14:25:45.493Z,102112.00
2022-12-25T14:28:26.731Z,102116.31
2022-12-25T14:30:55.027Z,102124.22
2022-12-25T14:33:25.166Z,102124.00
2022-12-25T14:35:52.877Z,102116.25
2022-12-25T14:38:27.327Z,102118.78
2022-12-25T14:41:07.680Z,102119.97
2022-12-25T14:43:36.401Z,102136.97
2022-12-25T14:46:06.546Z,102131.75
2022-12-25T14:48:34.202Z,102133.88
2022-12-25T14:51:18.823Z,102136.28
2022-12-25T14:53:49.614Z,102131.84
2022-12-25T14:56:20.246Z,102142.72
2022-12-25T14:58:51.635Z,102133.72
2022-12-25T15:01:27.066Z,102138.44
2022-12-25T15:04:10.725Z,102131.53
2022-12-25T15:06:54.117Z,102127.56
2022-12-25T15:09:21.856Z,102125.91
2022-12-25T15:11:55.426Z,102123.38
2022-12-25T15:14:24.588Z,102118.13
2022-12-25T15:17:01.629Z,102121.09
2022-12-25T15:19:38.263Z,102124.50
2022-12-25T15:22:06.355Z,102122.09
2022-12-25T15:24:33.764Z,102126.84
2022-12-25T15:27:01.590Z,102135.25
2022-12-25T15:32:20.176Z,102132.63
2022-12-25T15:34:49.965Z,102132.13
2022-12-25T15:37:19.018Z,102131.41
2022-12-25T15:39:46.700Z,102129.41
2022-12-25T15:42:17.724Z,102139.69
2022-12-25T15:44:45.422Z,102136.16
2022-12-25T15:47:14.049Z,102146.78
2022-12-25T15:49:42.384Z,102144.44
2022-12-25T15:52:15.574Z,102146.09
2022-12-25T15:54:42.909Z,102129.13
2022-12-25T15:57:18.017Z,102133.06
2022-12-25T15:59:46.233Z,102135.56
2022-12-25T16:02:19.771Z,102129.28
2022-12-25T16:04:47.491Z,102132.84
2022-12-25T16:07:16.897Z,102130.72
2022-12-25T16:09:44.985Z,102130.50
2022-12-25T16:12:12.466Z,102125.09
2022-12-25T16:14:39.873Z,102125.97
2022-12-25T16:17:07.856Z,102127.41
2022-12-25T16:19:35.220Z,102119.63
2022-12-25T16:22:11.427Z,102123.94
2022-12-25T16:24:38.777Z,102123.75
2022-12-25T16:27:06.628Z,102122.84
2022-12-25T16:29:34.032Z,102129.22
2022-12-25T16:32:01.551Z,102127.63
2022-12-25T16:34:29.514Z,102130.03
2022-12-25T16:36:56.901Z,102125.97
2022-12-25T16:39:24.311Z,102140.84
2022-12-25T16:41:51.701Z,102146.03
2022-12-25T16:44:19.842Z,102159.81
2022-12-25T16:46:47.655Z,102153.06
2022-12-25T16:49:15.196Z,102147.53
2022-12-25T16:51:42.586Z,102155.59
2022-12-25T16:54:10.316Z,102157.53
2022-12-25T16:56:38.411Z,102166.53
2022-12-25T16:59:05.663Z,102168.41
2022-12-25T17:01:33.186Z,102168.03
2022-12-25T17:04:04.056Z,102158.22
2022-12-25T17:06:31.486Z,102161.72
2022-12-25T17:09:00.390Z,102171.66
2022-12-25T17:11:30.187Z,102162.97
2022-12-25T17:14:02.022Z,102169.19
2022-12-25T17:16:32.217Z,102175.22
2022-12-25T17:19:04.224Z,102163.63
2022-12-25T17:21:35.081Z,102175.53
2022-12-25T17:24:04.130Z,102167.16
2022-12-25T17:26:33.510Z,102155.13
2022-12-25T17:29:01.486Z,102151.81
2022-12-25T17:31:29.999Z,102152.13
2022-12-25T17:33:59.672Z,102159.03
2022-12-25T17:36:27.952Z,102170.19
2022-12-25T17:38:55.761Z,102171.63
2022-12-25T17:41:23.188Z,102167.59
2022-12-25T17:43:51.027Z,102170.75
2022-12-25T17:46:21.030Z,102173.84
2022-12-25T17:48:52.338Z,102180.44
2022-12-25T17:51:23.761Z,102181.31
2022-12-25T17:53:53.620Z,102178.78
2022-12-25T17:56:23.054Z,102179.97
2022-12-25T17:58:52.802Z,102175.94
2022-12-25T18:01:21.627Z,102184.34
2022-12-25T18:03:50.118Z,102179.38
2022-12-25T18:06:20.441Z,102178.19
2022-12-25T18:08:48.843Z,102180.06
2022-12-25T18:11:20.628Z,102180.84
2022-12-25T18:13:49.960Z,102187.66
2022-12-25T18:16:19.652Z,102172.97
2022-12-25T18:18:51.975Z,102182.53
2022-12-25T18:21:22.295Z,102188.91
2022-12-25T18:23:50.238Z,102192.78
2022-12-25T18:26:18.852Z,102187.97
2022-12-25T18:28:47.750Z,102190.78
2022-12-25T18:31:17.894Z,102191.06
2022-12-25T18:33:46.287Z,102193.84
2022-12-25T18:36:16.238Z,102183.47
2022-12-25T18:38:43.714Z,102186.19
2022-12-25T18:41:11.478Z,102180.97
2022-12-25T18:43:52.813Z,102172.41
2022-12-25T18:46:27.329Z,102170.59
2022-12-25T18:48:56.862Z,102179.97
2022-12-25T18:51:24.574Z,102187.59
2022-12-25T18:53:52.410Z,102190.44
2022-12-25T18:56:20.558Z,102185.72
2022-12-25T18:58:48.548Z,102188.88
2022-12-25T19:01:22.836Z,102189.19
2022-12-25T19:03:53.879Z,102197.75
2022-12-25T19:06:27.504Z,102187.50
2022-12-25T19:08:56.284Z,102192.94
2022-12-25T19:11:24.119Z,102198.78
2022-12-25T19:13:51.489Z,102191.84
2022-12-25T19:16:20.043Z,102193.91
2022-12-25T19:18:48.470Z,102193.88
2022-12-25T19:21:16.132Z,102196.84
2022-12-25T19:23:43.526Z,102190.22
2022-12-25T19:26:11.491Z,102190.38
2022-12-25T19:28:39.635Z,102193.31
2022-12-25T19:31:08.739Z,102192.72
2022-12-25T19:33:42.118Z,102196.97
2022-12-25T19:36:14.694Z,102198.78
2022-12-25T19:38:43.669Z,102192.31
2022-12-25T19:41:16.933Z,102186.50
2022-12-25T19:43:47.847Z,102189.66
2022-12-25T19:46:18.804Z,102183.31
2022-12-25T19:48:46.908Z,102192.13
2022-12-25T19:51:25.810Z,102187.72
2022-12-25T19:53:56.792Z,102181.81
2022-12-25T19:56:28.785Z,102185.34
2022-12-25T19:58:56.962Z,102191.88
2022-12-25T20:01:26.550Z,102199.22
2022-12-25T20:03:54.551Z,102195.19
2022-12-25T20:06:26.255Z,102197.50
2022-12-25T20:08:57.766Z,102198.56
2022-12-25T20:11:27.852Z,102199.97
2022-12-25T20:13:55.725Z,102201.81
2022-12-25T20:16:23.780Z,102201.44
2022-12-25T20:18:51.875Z,102199.13
2022-12-25T20:21:21.908Z,102190.72
2022-12-25T20:23:51.479Z,102191.84
2022-12-25T20:26:21.560Z,102205.38
2022-12-25T20:28:48.996Z,102207.84
2022-12-25T20:31:23.083Z,102211.09
2022-12-25T20:33:50.819Z,102211.84
2022-12-25T20:36:18.926Z,102211.25
2022-12-25T20:38:46.486Z,102210.72
2022-12-25T20:41:27.918Z,102211.69
2022-12-25T20:43:56.798Z,102221.34
2022-12-25T20:46:25.554Z,102222.19
2022-12-25T20:48:53.708Z,102233.00
2022-12-25T20:51:23.508Z,102228.72
2022-12-25T20:53:51.342Z,102228.41
2022-12-25T20:56:21.706Z,102220.72
2022-12-25T20:58:53.967Z,102214.78
2022-12-25T21:01:22.120Z,102212.09
2022-12-25T21:03:49.903Z,102211.31
2022-12-25T21:06:18.437Z,102210.38
2022-12-25T21:08:46.202Z,102206.13
2022-12-25T21:11:15.693Z,102200.88
2022-12-25T21:13:45.774Z,102211.94
2022-12-25T21:16:18.283Z,102213.88
2022-12-25T21:18:46.806Z,102209.78
2022-12-25T21:21:15.037Z,102210.09
2022-12-25T21:23:43.058Z,102210.38
2022-12-25T21:26:18.953Z,102209.22
2022-12-25T21:28:51.796Z,102210.59
2022-12-25T21:31:20.079Z,102205.47
2022-12-25T21:33:53.884Z,102214.81
2022-12-25T21:36:21.679Z,102225.78
2022-12-25T21:38:53.376Z,102219.13
2022-12-25T21:41:20.741Z,102227.59
2022-12-25T21:43:48.078Z,102231.22
2022-12-25T21:46:16.419Z,102231.06
2022-12-25T21:48:46.322Z,102230.16
2022-12-25T21:51:39.472Z,102228.78
2022-12-25T21:54:07.373Z,102232.28
2022-12-25T21:56:43.588Z,102234.31
2022-12-25T21:59:21.396Z,102227.31
2022-12-25T22:01:50.962Z,102225.53
2022-12-25T22:04:20.415Z,102239.94
2022-12-25T22:07:06.827Z,102227.53
2022-12-25T22:09:35.018Z,102235.94
2022-12-25T22:12:21.522Z,102234.63
2022-12-25T22:14:56.829Z,102248.00
2022-12-25T22:17:49.177Z,102232.88
2022-12-25T22:20:31.437Z,102238.06
2022-12-25T22:22:59.196Z,102239.81
2022-12-25T22:25:27.229Z,102238.25
2022-12-25T22:27:54.573Z,102248.19
2022-12-25T22:30:28.067Z,102244.06
2022-12-25T22:32:56.700Z,102238.84
2022-12-25T22:35:24.406Z,102252.53
2022-12-25T22:37:53.407Z,102249.53
2022-12-25T22:40:21.434Z,102252.06
2022-12-25T22:42:49.188Z,102246.97
2022-12-25T22:45:16.957Z,102243.06
2022-12-25T22:47:44.311Z,102244.84
2022-12-25T22:50:14.758Z,102250.16
2022-12-25T22:52:42.329Z,102249.75
2022-12-25T22:55:10.499Z,102253.22
2022-12-25T22:57:37.759Z,102245.94
2022-12-25T23:00:08.814Z,102248.34
2022-12-25T23:02:36.550Z,102248.31
2022-12-25T23:05:04.896Z,102242.44
2022-12-25T23:07:32.267Z,102238.53
2022-12-25T23:10:00.093Z,102226.59
2022-12-25T23:12:45.851Z,102242.00
2022-12-25T23:15:13.653Z,102239.88
2022-12-25T23:17:59.627Z,102240.66
2022-12-25T23:20:45.915Z,102238.72
2022-12-25T23:23:33.451Z,102239.78
2022-12-25T23:26:09.713Z,102242.44
2022-12-25T23:28:56.834Z,102235.06
2022-12-25T23:31:28.950Z,102242.56
2022-12-25T23:33:57.160Z,102239.63
2022-12-25T23:36:24.599Z,102239.13
2022-12-25T23:38:51.977Z,102240.16
2022-12-25T23:41:19.449Z,102241.66
2022-12-25T23:43:46.830Z,102244.34
2022-12-25T23:46:14.365Z,102238.06
2022-12-25T23:48:42.257Z,102233.56
2022-12-25T23:51:09.755Z,102236.09
2022-12-25T23:53:37.596Z,102241.47
2022-12-25T23:56:05.870Z,102240.94
2022-12-25T23:58:34.176Z,102240.56
